sensor_id;sensor_type;location;lat;lon;timestamp;P1;durP1;ratioP1;P2;durP2;ratioP2
14900;SDS011;7542;49.078;9.194;2023-06-19T00:00:38;5.63;;;5.22;;
14900;SDS011;7542;49.078;9.194;2023-06-19T00:01:41;5.20;;;4.80;;
14900;SDS011;7542;49.078;9.194;2023-06-19T00:02:43;5.25;;;4.85;;
14900;SDS011;7542;49.078;9.194;2023-06-19T00:03:45;5.63;;;5.13;;
14900;SDS011;7542;49.078;9.194;2023-06-19T00:04:47;5.35;;;5.00;;
14900;SDS011;7542;49.078;9.194;2023-06-19T00:05:49;5.25;;;4.80;;
14900;SDS011;7542;49.078;9.194;2023-06-19T00:06:52;5.10;;;4.70;;
14900;SDS011;7542;49.078;9.194;2023-06-19T00:07:55;5.38;;;4.97;;
14900;SDS011;7542;49.078;9.194;2023-06-19T00:08:56;5.13;;;4.82;;
14900;SDS011;7542;49.078;9.194;2023-06-19T00:09:59;5.50;;;5.10;;
14900;SDS011;7542;49.078;9.194;2023-06-19T00:11:01;5.90;;;5.38;;
14900;SDS011;7542;49.078;9.194;2023-06-19T00:12:03;5.45;;;4.95;;
14900;SDS011;7542;49.078;9.194;2023-06-19T00:13:06;5.80;;;5.30;;
14900;SDS011;7542;49.078;9.194;2023-06-19T00:14:08;5.28;;;4.80;;
14900;SDS011;7542;49.078;9.194;2023-06-19T00:15:10;5.63;;;5.15;;
14900;SDS011;7542;49.078;9.194;2023-06-19T00:16:13;6.25;;;4.85;;
14900;SDS011;7542;49.078;9.194;2023-06-19T00:17:15;5.53;;;5.13;;
14900;SDS011;7542;49.078;9.194;2023-06-19T00:18:18;5.50;;;5.10;;
14900;SDS011;7542;49.078;9.194;2023-06-19T00:19:21;5.45;;;4.95;;
14900;SDS011;7542;49.078;9.194;2023-06-19T00:20:23;5.57;;;5.18;;
14900;SDS011;7542;49.078;9.194;2023-06-19T00:21:26;5.30;;;5.00;;
14900;SDS011;7542;49.078;9.194;2023-06-19T00:22:28;5.30;;;4.85;;
14900;SDS011;7542;49.078;9.194;2023-06-19T00:23:30;5.25;;;4.95;;
14900;SDS011;7542;49.078;9.194;2023-06-19T00:24:32;6.32;;;5.53;;
14900;SDS011;7542;49.078;9.194;2023-06-19T00:25:35;5.45;;;5.05;;
14900;SDS011;7542;49.078;9.194;2023-06-19T00:26:37;5.18;;;4.78;;
14900;SDS011;7542;49.078;9.194;2023-06-19T00:27:38;5.40;;;5.10;;
14900;SDS011;7542;49.078;9.194;2023-06-19T00:28:40;5.32;;;4.93;;
14900;SDS011;7542;49.078;9.194;2023-06-19T00:29:44;5.40;;;4.90;;
14900;SDS011;7542;49.078;9.194;2023-06-19T00:30:46;4.97;;;4.57;;
14900;SDS011;7542;49.078;9.194;2023-06-19T00:31:48;5.57;;;5.18;;
14900;SDS011;7542;49.078;9.194;2023-06-19T00:32:50;5.78;;;5.28;;
14900;SDS011;7542;49.078;9.194;2023-06-19T00:33:54;5.47;;;5.07;;
14900;SDS011;7542;49.078;9.194;2023-06-19T00:34:56;6.07;;;5.00;;
14900;SDS011;7542;49.078;9.194;2023-06-19T00:35:58;5.40;;;5.00;;
14900;SDS011;7542;49.078;9.194;2023-06-19T00:37:02;5.75;;;5.35;;
14900;SDS011;7542;49.078;9.194;2023-06-19T00:38:05;5.72;;;5.32;;
14900;SDS011;7542;49.078;9.194;2023-06-19T00:39:07;5.38;;;5.03;;
14900;SDS011;7542;49.078;9.194;2023-06-19T00:40:14;5.60;;;5.15;;
14900;SDS011;7542;49.078;9.194;2023-06-19T00:41:28;5.30;;;4.90;;
14900;SDS011;7542;49.078;9.194;2023-06-19T00:42:32;5.05;;;4.75;;
14900;SDS011;7542;49.078;9.194;2023-06-19T00:43:34;5.30;;;4.72;;
14900;SDS011;7542;49.078;9.194;2023-06-19T00:44:36;6.35;;;5.20;;
14900;SDS011;7542;49.078;9.194;2023-06-19T00:45:38;6.97;;;5.28;;
14900;SDS011;7542;49.078;9.194;2023-06-19T00:46:40;6.03;;;5.53;;
14900;SDS011;7542;49.078;9.194;2023-06-19T00:47:42;5.47;;;5.07;;
14900;SDS011;7542;49.078;9.194;2023-06-19T00:48:45;5.45;;;5.05;;
14900;SDS011;7542;49.078;9.194;2023-06-19T00:49:47;6.00;;;5.45;;
14900;SDS011;7542;49.078;9.194;2023-06-19T00:50:49;4.95;;;4.65;;
14900;SDS011;7542;49.078;9.194;2023-06-19T00:51:52;5.55;;;5.15;;
14900;SDS011;7542;49.078;9.194;2023-06-19T00:52:54;5.70;;;5.30;;
14900;SDS011;7542;49.078;9.194;2023-06-19T00:53:56;5.82;;;5.32;;
14900;SDS011;7542;49.078;9.194;2023-06-19T00:54:58;7.53;;;5.22;;
14900;SDS011;7542;49.078;9.194;2023-06-19T00:56:01;5.80;;;5.10;;
14900;SDS011;7542;49.078;9.194;2023-06-19T00:57:05;5.45;;;5.15;;
14900;SDS011;7542;49.078;9.194;2023-06-19T00:58:07;5.47;;;5.05;;
14900;SDS011;7542;49.078;9.194;2023-06-19T00:59:15;5.78;;;5.18;;
14900;SDS011;7542;49.078;9.194;2023-06-19T01:00:19;5.38;;;4.90;;
14900;SDS011;7542;49.078;9.194;2023-06-19T01:01:22;5.32;;;4.82;;
14900;SDS011;7542;49.078;9.194;2023-06-19T01:02:27;5.97;;;5.47;;
14900;SDS011;7542;49.078;9.194;2023-06-19T01:03:29;5.50;;;5.10;;
14900;SDS011;7542;49.078;9.194;2023-06-19T01:04:31;5.47;;;5.07;;
14900;SDS011;7542;49.078;9.194;2023-06-19T01:05:33;5.40;;;4.97;;
14900;SDS011;7542;49.078;9.194;2023-06-19T01:06:43;6.68;;;5.15;;
14900;SDS011;7542;49.078;9.194;2023-06-19T01:08:09;5.13;;;4.82;;
14900;SDS011;7542;49.078;9.194;2023-06-19T01:09:33;5.40;;;5.03;;
14900;SDS011;7542;49.078;9.194;2023-06-19T01:10:47;5.50;;;5.00;;
14900;SDS011;7542;49.078;9.194;2023-06-19T01:11:57;5.38;;;4.97;;
14900;SDS011;7542;49.078;9.194;2023-06-19T01:14:29;5.80;;;5.30;;
14900;SDS011;7542;49.078;9.194;2023-06-19T01:15:46;5.40;;;5.00;;
14900;SDS011;7542;49.078;9.194;2023-06-19T01:16:49;5.38;;;4.88;;
14900;SDS011;7542;49.078;9.194;2023-06-19T01:17:53;5.70;;;5.20;;
14900;SDS011;7542;49.078;9.194;2023-06-19T01:18:59;5.50;;;5.10;;
14900;SDS011;7542;49.078;9.194;2023-06-19T01:20:02;5.75;;;5.30;;
14900;SDS011;7542;49.078;9.194;2023-06-19T01:21:12;5.25;;;4.88;;
14900;SDS011;7542;49.078;9.194;2023-06-19T01:22:26;5.38;;;4.97;;
14900;SDS011;7542;49.078;9.194;2023-06-19T01:23:32;5.55;;;5.18;;
14900;SDS011;7542;49.078;9.194;2023-06-19T01:24:34;5.15;;;4.82;;
14900;SDS011;7542;49.078;9.194;2023-06-19T01:25:37;5.65;;;5.25;;
14900;SDS011;7542;49.078;9.194;2023-06-19T01:26:39;6.03;;;4.85;;
14900;SDS011;7542;49.078;9.194;2023-06-19T01:27:42;5.18;;;4.88;;
14900;SDS011;7542;49.078;9.194;2023-06-19T01:28:44;5.53;;;5.13;;
14900;SDS011;7542;49.078;9.194;2023-06-19T01:29:48;5.30;;;5.00;;
14900;SDS011;7542;49.078;9.194;2023-06-19T01:30:50;5.20;;;4.90;;
14900;SDS011;7542;49.078;9.194;2023-06-19T01:32:03;5.88;;;5.40;;
14900;SDS011;7542;49.078;9.194;2023-06-19T01:34:27;5.20;;;4.80;;
14900;SDS011;7542;49.078;9.194;2023-06-19T01:35:33;4.95;;;4.60;;
14900;SDS011;7542;49.078;9.194;2023-06-19T01:36:40;4.78;;;4.47;;
14900;SDS011;7542;49.078;9.194;2023-06-19T01:37:43;5.03;;;4.68;;
14900;SDS011;7542;49.078;9.194;2023-06-19T01:38:48;4.85;;;4.55;;
14900;SDS011;7542;49.078;9.194;2023-06-19T01:39:53;4.95;;;4.55;;
14900;SDS011;7542;49.078;9.194;2023-06-19T01:40:58;4.70;;;4.40;;
14900;SDS011;7542;49.078;9.194;2023-06-19T01:42:02;5.13;;;4.57;;
14900;SDS011;7542;49.078;9.194;2023-06-19T01:43:06;4.45;;;4.10;;
14900;SDS011;7542;49.078;9.194;2023-06-19T01:44:09;4.65;;;4.25;;
14900;SDS011;7542;49.078;9.194;2023-06-19T01:45:12;4.63;;;3.85;;
14900;SDS011;7542;49.078;9.194;2023-06-19T01:46:14;4.10;;;3.80;;
14900;SDS011;7542;49.078;9.194;2023-06-19T01:47:16;4.38;;;4.07;;
14900;SDS011;7542;49.078;9.194;2023-06-19T01:48:21;4.10;;;3.90;;
14900;SDS011;7542;49.078;9.194;2023-06-19T01:49:23;4.32;;;3.90;;
14900;SDS011;7542;49.078;9.194;2023-06-19T01:50:25;4.95;;;4.00;;
14900;SDS011;7542;49.078;9.194;2023-06-19T01:51:27;3.95;;;3.75;;
14900;SDS011;7542;49.078;9.194;2023-06-19T01:52:29;5.25;;;4.03;;
14900;SDS011;7542;49.078;9.194;2023-06-19T01:53:31;3.67;;;3.40;;
14900;SDS011;7542;49.078;9.194;2023-06-19T01:54:34;3.50;;;3.30;;
14900;SDS011;7542;49.078;9.194;2023-06-19T01:55:35;3.30;;;3.10;;
14900;SDS011;7542;49.078;9.194;2023-06-19T01:56:38;3.40;;;3.20;;
14900;SDS011;7542;49.078;9.194;2023-06-19T01:57:41;3.20;;;3.00;;
14900;SDS011;7542;49.078;9.194;2023-06-19T01:58:43;4.03;;;3.10;;
14900;SDS011;7542;49.078;9.194;2023-06-19T01:59:45;3.03;;;2.83;;
14900;SDS011;7542;49.078;9.194;2023-06-19T02:00:47;2.85;;;2.75;;
14900;SDS011;7542;49.078;9.194;2023-06-19T02:01:49;2.90;;;2.72;;
14900;SDS011;7542;49.078;9.194;2023-06-19T02:02:51;2.80;;;2.70;;
14900;SDS011;7542;49.078;9.194;2023-06-19T02:03:53;2.50;;;2.40;;
14900;SDS011;7542;49.078;9.194;2023-06-19T02:04:55;3.00;;;2.45;;
14900;SDS011;7542;49.078;9.194;2023-06-19T02:05:57;2.72;;;2.53;;
14900;SDS011;7542;49.078;9.194;2023-06-19T02:06:59;2.97;;;2.22;;
14900;SDS011;7542;49.078;9.194;2023-06-19T02:08:01;3.95;;;2.38;;
14900;SDS011;7542;49.078;9.194;2023-06-19T02:09:04;3.05;;;2.75;;
14900;SDS011;7542;49.078;9.194;2023-06-19T02:10:06;2.33;;;2.22;;
14900;SDS011;7542;49.078;9.194;2023-06-19T02:11:09;3.17;;;2.63;;
14900;SDS011;7542;49.078;9.194;2023-06-19T02:12:11;2.00;;;1.90;;
14900;SDS011;7542;49.078;9.194;2023-06-19T02:13:13;3.03;;;1.95;;
14900;SDS011;7542;49.078;9.194;2023-06-19T02:14:15;2.40;;;2.30;;
14900;SDS011;7542;49.078;9.194;2023-06-19T02:15:17;2.95;;;1.80;;
14900;SDS011;7542;49.078;9.194;2023-06-19T02:16:19;1.85;;;1.85;;
14900;SDS011;7542;49.078;9.194;2023-06-19T02:17:21;2.08;;;2.08;;
14900;SDS011;7542;49.078;9.194;2023-06-19T02:18:23;1.92;;;1.83;;
14900;SDS011;7542;49.078;9.194;2023-06-19T02:19:26;3.03;;;2.20;;
14900;SDS011;7542;49.078;9.194;2023-06-19T02:20:28;1.75;;;1.65;;
14900;SDS011;7542;49.078;9.194;2023-06-19T02:21:30;1.77;;;1.75;;
14900;SDS011;7542;49.078;9.194;2023-06-19T02:22:32;2.05;;;1.95;;
14900;SDS011;7542;49.078;9.194;2023-06-19T02:23:34;1.90;;;1.80;;
14900;SDS011;7542;49.078;9.194;2023-06-19T02:24:36;1.88;;;1.80;;
14900;SDS011;7542;49.078;9.194;2023-06-19T02:25:40;1.60;;;1.60;;
14900;SDS011;7542;49.078;9.194;2023-06-19T02:26:42;1.65;;;1.65;;
14900;SDS011;7542;49.078;9.194;2023-06-19T02:27:45;2.75;;;1.83;;
14900;SDS011;7542;49.078;9.194;2023-06-19T02:28:47;1.73;;;1.63;;
14900;SDS011;7542;49.078;9.194;2023-06-19T02:29:49;1.65;;;1.65;;
14900;SDS011;7542;49.078;9.194;2023-06-19T02:30:52;1.73;;;1.60;;
14900;SDS011;7542;49.078;9.194;2023-06-19T02:31:55;2.00;;;1.60;;
14900;SDS011;7542;49.078;9.194;2023-06-19T02:32:57;1.50;;;1.50;;
14900;SDS011;7542;49.078;9.194;2023-06-19T02:33:59;1.70;;;1.60;;
14900;SDS011;7542;49.078;9.194;2023-06-19T02:35:02;1.70;;;1.60;;
14900;SDS011;7542;49.078;9.194;2023-06-19T02:36:09;1.30;;;1.30;;
14900;SDS011;7542;49.078;9.194;2023-06-19T02:37:12;1.58;;;1.45;;
14900;SDS011;7542;49.078;9.194;2023-06-19T02:38:14;1.70;;;1.60;;
14900;SDS011;7542;49.078;9.194;2023-06-19T02:39:16;1.50;;;1.30;;
14900;SDS011;7542;49.078;9.194;2023-06-19T02:40:19;1.65;;;1.65;;
14900;SDS011;7542;49.078;9.194;2023-06-19T02:41:21;1.40;;;1.40;;
14900;SDS011;7542;49.078;9.194;2023-06-19T02:42:23;1.70;;;1.70;;
14900;SDS011;7542;49.078;9.194;2023-06-19T02:43:25;1.45;;;1.45;;
14900;SDS011;7542;49.078;9.194;2023-06-19T02:44:27;1.50;;;1.50;;
14900;SDS011;7542;49.078;9.194;2023-06-19T02:45:29;2.00;;;1.48;;
14900;SDS011;7542;49.078;9.194;2023-06-19T02:46:31;1.52;;;1.38;;
14900;SDS011;7542;49.078;9.194;2023-06-19T02:47:33;1.55;;;1.55;;
14900;SDS011;7542;49.078;9.194;2023-06-19T02:48:36;1.85;;;1.85;;
14900;SDS011;7542;49.078;9.194;2023-06-19T02:49:38;1.50;;;1.50;;
14900;SDS011;7542;49.078;9.194;2023-06-19T02:50:40;1.58;;;1.48;;
14900;SDS011;7542;49.078;9.194;2023-06-19T02:51:42;1.65;;;1.55;;
14900;SDS011;7542;49.078;9.194;2023-06-19T02:52:44;1.48;;;1.40;;
14900;SDS011;7542;49.078;9.194;2023-06-19T02:53:46;1.80;;;1.70;;
14900;SDS011;7542;49.078;9.194;2023-06-19T02:54:48;1.55;;;1.55;;
14900;SDS011;7542;49.078;9.194;2023-06-19T02:55:50;1.38;;;1.38;;
14900;SDS011;7542;49.078;9.194;2023-06-19T02:56:52;1.60;;;1.55;;
14900;SDS011;7542;49.078;9.194;2023-06-19T02:57:54;2.05;;;1.67;;
14900;SDS011;7542;49.078;9.194;2023-06-19T02:58:56;1.70;;;1.60;;
14900;SDS011;7542;49.078;9.194;2023-06-19T02:59:58;1.75;;;1.73;;
14900;SDS011;7542;49.078;9.194;2023-06-19T03:01:00;1.58;;;1.58;;
14900;SDS011;7542;49.078;9.194;2023-06-19T03:02:02;3.53;;;1.73;;
14900;SDS011;7542;49.078;9.194;2023-06-19T03:03:05;1.88;;;1.67;;
14900;SDS011;7542;49.078;9.194;2023-06-19T03:04:07;1.90;;;1.80;;
14900;SDS011;7542;49.078;9.194;2023-06-19T03:05:09;1.70;;;1.60;;
14900;SDS011;7542;49.078;9.194;2023-06-19T03:06:15;1.65;;;1.65;;
14900;SDS011;7542;49.078;9.194;2023-06-19T03:07:19;1.92;;;1.83;;
14900;SDS011;7542;49.078;9.194;2023-06-19T03:08:21;1.75;;;1.65;;
14900;SDS011;7542;49.078;9.194;2023-06-19T03:09:22;1.48;;;1.48;;
14900;SDS011;7542;49.078;9.194;2023-06-19T03:10:25;2.15;;;1.50;;
14900;SDS011;7542;49.078;9.194;2023-06-19T03:11:27;1.35;;;1.35;;
14900;SDS011;7542;49.078;9.194;2023-06-19T03:12:29;1.92;;;1.50;;
14900;SDS011;7542;49.078;9.194;2023-06-19T03:13:43;1.48;;;1.48;;
14900;SDS011;7542;49.078;9.194;2023-06-19T03:14:53;1.45;;;1.45;;
14900;SDS011;7542;49.078;9.194;2023-06-19T03:15:56;1.42;;;1.42;;
14900;SDS011;7542;49.078;9.194;2023-06-19T03:16:58;1.40;;;1.40;;
14900;SDS011;7542;49.078;9.194;2023-06-19T03:18:00;1.60;;;1.60;;
14900;SDS011;7542;49.078;9.194;2023-06-19T03:19:05;1.40;;;1.40;;
14900;SDS011;7542;49.078;9.194;2023-06-19T03:20:07;1.88;;;1.80;;
14900;SDS011;7542;49.078;9.194;2023-06-19T03:21:13;1.60;;;1.60;;
14900;SDS011;7542;49.078;9.194;2023-06-19T03:22:16;1.70;;;1.60;;
14900;SDS011;7542;49.078;9.194;2023-06-19T03:23:19;1.33;;;1.33;;
14900;SDS011;7542;49.078;9.194;2023-06-19T03:24:21;1.95;;;1.83;;
14900;SDS011;7542;49.078;9.194;2023-06-19T03:25:23;1.65;;;1.55;;
14900;SDS011;7542;49.078;9.194;2023-06-19T03:26:25;1.58;;;1.27;;
14900;SDS011;7542;49.078;9.194;2023-06-19T03:27:27;1.50;;;1.40;;
14900;SDS011;7542;49.078;9.194;2023-06-19T03:28:30;2.08;;;1.67;;
14900;SDS011;7542;49.078;9.194;2023-06-19T03:29:32;2.63;;;1.65;;
14900;SDS011;7542;49.078;9.194;2023-06-19T03:30:34;1.98;;;1.67;;
14900;SDS011;7542;49.078;9.194;2023-06-19T03:31:36;1.58;;;1.50;;
14900;SDS011;7542;49.078;9.194;2023-06-19T03:32:40;1.80;;;1.70;;
14900;SDS011;7542;49.078;9.194;2023-06-19T03:33:42;1.63;;;1.52;;
14900;SDS011;7542;49.078;9.194;2023-06-19T03:34:44;1.35;;;1.35;;
14900;SDS011;7542;49.078;9.194;2023-06-19T03:35:47;1.77;;;1.67;;
14900;SDS011;7542;49.078;9.194;2023-06-19T03:36:49;1.52;;;1.50;;
14900;SDS011;7542;49.078;9.194;2023-06-19T03:37:51;1.55;;;1.45;;
14900;SDS011;7542;49.078;9.194;2023-06-19T03:38:53;1.83;;;1.83;;
14900;SDS011;7542;49.078;9.194;2023-06-19T03:39:56;1.30;;;1.30;;
14900;SDS011;7542;49.078;9.194;2023-06-19T03:40:58;1.52;;;1.52;;
14900;SDS011;7542;49.078;9.194;2023-06-19T03:42:00;1.30;;;1.30;;
14900;SDS011;7542;49.078;9.194;2023-06-19T03:43:03;1.48;;;1.48;;
14900;SDS011;7542;49.078;9.194;2023-06-19T03:44:05;1.50;;;1.50;;
14900;SDS011;7542;49.078;9.194;2023-06-19T03:45:07;1.42;;;1.42;;
14900;SDS011;7542;49.078;9.194;2023-06-19T03:46:09;1.98;;;1.88;;
14900;SDS011;7542;49.078;9.194;2023-06-19T03:47:11;1.85;;;1.85;;
14900;SDS011;7542;49.078;9.194;2023-06-19T03:48:13;1.55;;;1.55;;
14900;SDS011;7542;49.078;9.194;2023-06-19T03:49:17;1.98;;;1.70;;
14900;SDS011;7542;49.078;9.194;2023-06-19T03:50:19;1.58;;;1.50;;
14900;SDS011;7542;49.078;9.194;2023-06-19T03:51:24;1.77;;;1.67;;
14900;SDS011;7542;49.078;9.194;2023-06-19T03:52:26;2.60;;;1.80;;
14900;SDS011;7542;49.078;9.194;2023-06-19T03:53:28;1.70;;;1.70;;
14900;SDS011;7542;49.078;9.194;2023-06-19T03:54:30;2.88;;;1.83;;
14900;SDS011;7542;49.078;9.194;2023-06-19T03:55:32;1.65;;;1.65;;
14900;SDS011;7542;49.078;9.194;2023-06-19T03:56:35;2.25;;;1.70;;
14900;SDS011;7542;49.078;9.194;2023-06-19T03:57:36;1.70;;;1.70;;
14900;SDS011;7542;49.078;9.194;2023-06-19T03:58:39;2.08;;;1.95;;
14900;SDS011;7542;49.078;9.194;2023-06-19T03:59:41;1.90;;;1.80;;
14900;SDS011;7542;49.078;9.194;2023-06-19T04:00:43;1.92;;;1.92;;
14900;SDS011;7542;49.078;9.194;2023-06-19T04:01:45;2.10;;;1.90;;
14900;SDS011;7542;49.078;9.194;2023-06-19T04:02:47;1.90;;;1.80;;
14900;SDS011;7542;49.078;9.194;2023-06-19T04:03:49;1.90;;;1.75;;
14900;SDS011;7542;49.078;9.194;2023-06-19T04:04:51;1.92;;;1.83;;
14900;SDS011;7542;49.078;9.194;2023-06-19T04:05:53;2.08;;;2.00;;
14900;SDS011;7542;49.078;9.194;2023-06-19T04:06:55;2.00;;;1.90;;
14900;SDS011;7542;49.078;9.194;2023-06-19T04:07:58;1.90;;;1.80;;
14900;SDS011;7542;49.078;9.194;2023-06-19T04:09:00;1.73;;;1.67;;
14900;SDS011;7542;49.078;9.194;2023-06-19T04:10:02;1.77;;;1.77;;
14900;SDS011;7542;49.078;9.194;2023-06-19T04:11:04;1.90;;;1.80;;
14900;SDS011;7542;49.078;9.194;2023-06-19T04:12:07;1.73;;;1.73;;
14900;SDS011;7542;49.078;9.194;2023-06-19T04:13:10;1.80;;;1.70;;
14900;SDS011;7542;49.078;9.194;2023-06-19T04:14:13;1.75;;;1.55;;
14900;SDS011;7542;49.078;9.194;2023-06-19T04:15:14;1.98;;;1.77;;
14900;SDS011;7542;49.078;9.194;2023-06-19T04:16:16;2.00;;;1.90;;
14900;SDS011;7542;49.078;9.194;2023-06-19T04:17:18;1.85;;;1.83;;
14900;SDS011;7542;49.078;9.194;2023-06-19T04:18:21;1.88;;;1.80;;
14900;SDS011;7542;49.078;9.194;2023-06-19T04:19:23;1.63;;;1.50;;
14900;SDS011;7542;49.078;9.194;2023-06-19T04:20:24;1.88;;;1.77;;
14900;SDS011;7542;49.078;9.194;2023-06-19T04:21:27;2.45;;;1.85;;
14900;SDS011;7542;49.078;9.194;2023-06-19T04:22:29;3.05;;;1.80;;
14900;SDS011;7542;49.078;9.194;2023-06-19T04:23:31;2.13;;;1.92;;
14900;SDS011;7542;49.078;9.194;2023-06-19T04:24:33;2.00;;;1.90;;
14900;SDS011;7542;49.078;9.194;2023-06-19T04:25:36;2.00;;;1.90;;
14900;SDS011;7542;49.078;9.194;2023-06-19T04:26:38;1.85;;;1.75;;
14900;SDS011;7542;49.078;9.194;2023-06-19T04:27:40;1.88;;;1.70;;
14900;SDS011;7542;49.078;9.194;2023-06-19T04:28:42;5.95;;;1.73;;
14900;SDS011;7542;49.078;9.194;2023-06-19T04:29:44;2.83;;;1.80;;
14900;SDS011;7542;49.078;9.194;2023-06-19T04:30:46;1.58;;;1.58;;
14900;SDS011;7542;49.078;9.194;2023-06-19T04:31:48;1.90;;;1.80;;
14900;SDS011;7542;49.078;9.194;2023-06-19T04:32:51;1.40;;;1.40;;
14900;SDS011;7542;49.078;9.194;2023-06-19T04:33:54;1.98;;;1.88;;
14900;SDS011;7542;49.078;9.194;2023-06-19T04:34:57;1.92;;;1.83;;
14900;SDS011;7542;49.078;9.194;2023-06-19T04:36:00;1.75;;;1.75;;
14900;SDS011;7542;49.078;9.194;2023-06-19T04:37:02;1.70;;;1.60;;
14900;SDS011;7542;49.078;9.194;2023-06-19T04:38:04;2.17;;;2.00;;
14900;SDS011;7542;49.078;9.194;2023-06-19T04:39:10;1.73;;;1.63;;
14900;SDS011;7542;49.078;9.194;2023-06-19T04:40:12;1.55;;;1.55;;
14900;SDS011;7542;49.078;9.194;2023-06-19T04:41:14;1.80;;;1.70;;
14900;SDS011;7542;49.078;9.194;2023-06-19T04:42:16;3.67;;;1.60;;
14900;SDS011;7542;49.078;9.194;2023-06-19T04:43:20;1.77;;;1.73;;
14900;SDS011;7542;49.078;9.194;2023-06-19T04:44:22;1.60;;;1.60;;
14900;SDS011;7542;49.078;9.194;2023-06-19T04:45:24;2.03;;;1.92;;
14900;SDS011;7542;49.078;9.194;2023-06-19T04:46:26;1.95;;;1.85;;
14900;SDS011;7542;49.078;9.194;2023-06-19T04:47:28;2.17;;;2.03;;
14900;SDS011;7542;49.078;9.194;2023-06-19T04:48:48;1.80;;;1.70;;
14900;SDS011;7542;49.078;9.194;2023-06-19T04:49:52;1.83;;;1.83;;
14900;SDS011;7542;49.078;9.194;2023-06-19T04:50:54;1.95;;;1.80;;
14900;SDS011;7542;49.078;9.194;2023-06-19T04:51:57;1.67;;;1.58;;
14900;SDS011;7542;49.078;9.194;2023-06-19T04:52:59;1.85;;;1.75;;
14900;SDS011;7542;49.078;9.194;2023-06-19T04:54:02;1.73;;;1.63;;
14900;SDS011;7542;49.078;9.194;2023-06-19T04:55:05;1.60;;;1.60;;
14900;SDS011;7542;49.078;9.194;2023-06-19T04:56:10;1.60;;;1.60;;
14900;SDS011;7542;49.078;9.194;2023-06-19T04:57:12;1.63;;;1.63;;
14900;SDS011;7542;49.078;9.194;2023-06-19T04:58:14;1.58;;;1.58;;
14900;SDS011;7542;49.078;9.194;2023-06-19T04:59:16;1.65;;;1.60;;
14900;SDS011;7542;49.078;9.194;2023-06-19T05:00:19;1.83;;;1.77;;
14900;SDS011;7542;49.078;9.194;2023-06-19T05:01:25;1.70;;;1.70;;
14900;SDS011;7542;49.078;9.194;2023-06-19T05:02:31;2.10;;;1.77;;
14900;SDS011;7542;49.078;9.194;2023-06-19T05:03:34;1.52;;;1.52;;
14900;SDS011;7542;49.078;9.194;2023-06-19T05:04:36;1.90;;;1.80;;
14900;SDS011;7542;49.078;9.194;2023-06-19T05:05:39;1.70;;;1.60;;
14900;SDS011;7542;49.078;9.194;2023-06-19T05:06:41;1.80;;;1.80;;
14900;SDS011;7542;49.078;9.194;2023-06-19T05:07:44;1.73;;;1.70;;
14900;SDS011;7542;49.078;9.194;2023-06-19T05:08:46;2.00;;;1.90;;
14900;SDS011;7542;49.078;9.194;2023-06-19T05:09:48;2.00;;;1.90;;
14900;SDS011;7542;49.078;9.194;2023-06-19T05:10:51;1.80;;;1.80;;
14900;SDS011;7542;49.078;9.194;2023-06-19T05:11:52;2.10;;;2.00;;
14900;SDS011;7542;49.078;9.194;2023-06-19T05:12:55;2.00;;;1.90;;
14900;SDS011;7542;49.078;9.194;2023-06-19T05:13:57;2.10;;;2.00;;
14900;SDS011;7542;49.078;9.194;2023-06-19T05:14:59;1.90;;;1.80;;
14900;SDS011;7542;49.078;9.194;2023-06-19T05:16:01;1.80;;;1.67;;
14900;SDS011;7542;49.078;9.194;2023-06-19T05:17:03;1.50;;;1.50;;
14900;SDS011;7542;49.078;9.194;2023-06-19T05:18:05;1.67;;;1.67;;
14900;SDS011;7542;49.078;9.194;2023-06-19T05:19:08;1.80;;;1.70;;
14900;SDS011;7542;49.078;9.194;2023-06-19T05:20:10;1.75;;;1.65;;
14900;SDS011;7542;49.078;9.194;2023-06-19T05:21:13;1.58;;;1.58;;
14900;SDS011;7542;49.078;9.194;2023-06-19T05:22:15;1.80;;;1.80;;
14900;SDS011;7542;49.078;9.194;2023-06-19T05:23:19;1.63;;;1.63;;
14900;SDS011;7542;49.078;9.194;2023-06-19T05:24:21;2.25;;;1.60;;
14900;SDS011;7542;49.078;9.194;2023-06-19T05:25:23;1.98;;;1.98;;
14900;SDS011;7542;49.078;9.194;2023-06-19T05:26:25;2.47;;;1.95;;
14900;SDS011;7542;49.078;9.194;2023-06-19T05:27:27;1.90;;;1.80;;
14900;SDS011;7542;49.078;9.194;2023-06-19T05:28:29;2.10;;;2.00;;
14900;SDS011;7542;49.078;9.194;2023-06-19T05:29:32;1.90;;;1.80;;
14900;SDS011;7542;49.078;9.194;2023-06-19T05:30:34;4.45;;;1.65;;
14900;SDS011;7542;49.078;9.194;2023-06-19T05:31:36;1.90;;;1.80;;
14900;SDS011;7542;49.078;9.194;2023-06-19T05:32:38;1.75;;;1.65;;
14900;SDS011;7542;49.078;9.194;2023-06-19T05:33:40;2.15;;;2.00;;
14900;SDS011;7542;49.078;9.194;2023-06-19T05:34:43;2.20;;;2.10;;
14900;SDS011;7542;49.078;9.194;2023-06-19T05:35:45;1.85;;;1.75;;
14900;SDS011;7542;49.078;9.194;2023-06-19T05:36:52;1.80;;;1.80;;
14900;SDS011;7542;49.078;9.194;2023-06-19T05:37:54;1.70;;;1.70;;
14900;SDS011;7542;49.078;9.194;2023-06-19T05:38:56;1.90;;;1.80;;
14900;SDS011;7542;49.078;9.194;2023-06-19T05:39:58;1.50;;;1.50;;
14900;SDS011;7542;49.078;9.194;2023-06-19T05:41:01;1.90;;;1.80;;
14900;SDS011;7542;49.078;9.194;2023-06-19T05:42:04;1.85;;;1.73;;
14900;SDS011;7542;49.078;9.194;2023-06-19T05:43:07;2.20;;;2.10;;
14900;SDS011;7542;49.078;9.194;2023-06-19T05:44:09;2.67;;;1.85;;
14900;SDS011;7542;49.078;9.194;2023-06-19T05:45:11;2.08;;;1.92;;
14900;SDS011;7542;49.078;9.194;2023-06-19T05:46:13;1.98;;;1.88;;
14900;SDS011;7542;49.078;9.194;2023-06-19T05:47:15;1.80;;;1.70;;
14900;SDS011;7542;49.078;9.194;2023-06-19T05:48:19;2.05;;;1.88;;
14900;SDS011;7542;49.078;9.194;2023-06-19T05:49:21;3.15;;;2.00;;
14900;SDS011;7542;49.078;9.194;2023-06-19T05:50:23;2.03;;;1.92;;
14900;SDS011;7542;49.078;9.194;2023-06-19T05:51:26;2.28;;;2.00;;
14900;SDS011;7542;49.078;9.194;2023-06-19T05:52:28;2.38;;;2.20;;
14900;SDS011;7542;49.078;9.194;2023-06-19T05:53:30;1.90;;;1.83;;
14900;SDS011;7542;49.078;9.194;2023-06-19T05:54:33;3.03;;;1.70;;
14900;SDS011;7542;49.078;9.194;2023-06-19T05:55:34;1.95;;;1.85;;
14900;SDS011;7542;49.078;9.194;2023-06-19T05:56:36;2.13;;;1.90;;
14900;SDS011;7542;49.078;9.194;2023-06-19T05:57:38;1.85;;;1.75;;
14900;SDS011;7542;49.078;9.194;2023-06-19T05:58:41;2.00;;;1.90;;
14900;SDS011;7542;49.078;9.194;2023-06-19T05:59:43;1.98;;;1.88;;
14900;SDS011;7542;49.078;9.194;2023-06-19T06:00:44;2.10;;;2.00;;
14900;SDS011;7542;49.078;9.194;2023-06-19T06:01:48;3.88;;;1.90;;
14900;SDS011;7542;49.078;9.194;2023-06-19T06:02:51;2.08;;;1.98;;
14900;SDS011;7542;49.078;9.194;2023-06-19T06:03:54;2.17;;;2.08;;
14900;SDS011;7542;49.078;9.194;2023-06-19T06:04:58;2.65;;;2.08;;
14900;SDS011;7542;49.078;9.194;2023-06-19T06:06:00;2.10;;;2.00;;
14900;SDS011;7542;49.078;9.194;2023-06-19T06:07:04;2.65;;;2.00;;
14900;SDS011;7542;49.078;9.194;2023-06-19T06:08:07;1.70;;;1.70;;
14900;SDS011;7542;49.078;9.194;2023-06-19T06:09:09;2.05;;;1.95;;
14900;SDS011;7542;49.078;9.194;2023-06-19T06:10:13;2.33;;;2.20;;
14900;SDS011;7542;49.078;9.194;2023-06-19T06:11:15;2.30;;;2.10;;
14900;SDS011;7542;49.078;9.194;2023-06-19T06:12:17;1.98;;;1.88;;
14900;SDS011;7542;49.078;9.194;2023-06-19T06:13:19;3.60;;;1.80;;
14900;SDS011;7542;49.078;9.194;2023-06-19T06:14:21;2.10;;;2.00;;
14900;SDS011;7542;49.078;9.194;2023-06-19T06:15:23;2.10;;;1.90;;
14900;SDS011;7542;49.078;9.194;2023-06-19T06:16:25;1.92;;;1.88;;
14900;SDS011;7542;49.078;9.194;2023-06-19T06:17:27;1.92;;;1.83;;
14900;SDS011;7542;49.078;9.194;2023-06-19T06:18:29;2.10;;;2.00;;
14900;SDS011;7542;49.078;9.194;2023-06-19T06:19:31;2.10;;;2.00;;
14900;SDS011;7542;49.078;9.194;2023-06-19T06:20:33;1.90;;;1.80;;
14900;SDS011;7542;49.078;9.194;2023-06-19T06:21:35;2.10;;;2.00;;
14900;SDS011;7542;49.078;9.194;2023-06-19T06:22:41;2.17;;;2.08;;
14900;SDS011;7542;49.078;9.194;2023-06-19T06:23:44;2.80;;;2.03;;
14900;SDS011;7542;49.078;9.194;2023-06-19T06:24:46;2.08;;;1.95;;
14900;SDS011;7542;49.078;9.194;2023-06-19T06:25:48;2.95;;;1.98;;
14900;SDS011;7542;49.078;9.194;2023-06-19T06:26:50;1.60;;;1.60;;
14900;SDS011;7542;49.078;9.194;2023-06-19T06:27:53;1.92;;;1.83;;